CFG4H LOWW-EDDF
Flight info
| Callsign | CFG4H |
|---|---|
| Flight time | 1h 4m |
| Altitude | 30000 |
| Route | LUGEM DCT SUBEN T161 DEBHI DEBHI1B |
| Aircraft | A321/M-SDE3FGHIRWY/LB1 |
Departure
| Time | 2026-05-04 15:41 |
|---|---|
| Airport | Vienna International Airport (LOWW) |
Arrival
| Time | 2026-05-04 16:46 |
|---|---|
| Airport | Frankfurt Main Airport (EDDF) |
| Time | Latitude | Longitude | Altitude | Speed | Heading |
|---|---|---|---|---|---|
| 2026-05-04 15:17 | 48.11726 | 16.56736 | 615 ft | 0 kts | 26° |
| 2026-05-04 15:32 | 48.11725 | 16.56735 | 615 ft | 2 kts | 26° |
| 2026-05-04 15:33 | 48.11678 | 16.56700 | 615 ft | 4 kts | 34° |
| 2026-05-04 15:34 | 48.11662 | 16.56662 | 615 ft | 0 kts | 116° |
| 2026-05-04 15:36 | 48.11654 | 16.56687 | 615 ft | 5 kts | 116° |
| 2026-05-04 15:36 | 48.11631 | 16.56756 | 620 ft | 10 kts | 116° |
| 2026-05-04 15:36 | 48.11596 | 16.56866 | 615 ft | 13 kts | 115° |
| 2026-05-04 15:37 | 48.11550 | 16.57006 | 620 ft | 16 kts | 116° |
| 2026-05-04 15:37 | 48.11497 | 16.57172 | 615 ft | 19 kts | 116° |
| 2026-05-04 15:37 | 48.11439 | 16.57350 | 623 ft | 14 kts | 113° |
| 2026-05-04 15:37 | 48.11496 | 16.57466 | 615 ft | 17 kts | 28° |
| 2026-05-04 15:38 | 48.11612 | 16.57549 | 619 ft | 20 kts | 358° |
| 2026-05-04 15:38 | 48.11753 | 16.57495 | 626 ft | 22 kts | 345° |
| 2026-05-04 15:38 | 48.11909 | 16.57429 | 617 ft | 24 kts | 344° |
| 2026-05-04 15:38 | 48.12012 | 16.57456 | 618 ft | 14 kts | 78° |
| 2026-05-04 15:39 | 48.11993 | 16.57606 | 615 ft | 16 kts | 105° |
| 2026-05-04 15:39 | 48.11966 | 16.57759 | 615 ft | 7 kts | 95° |
| 2026-05-04 15:39 | 48.11930 | 16.57839 | 615 ft | 0 kts | 164° |
| 2026-05-04 15:40 | 48.11929 | 16.57839 | 615 ft | 2 kts | 164° |
| 2026-05-04 15:40 | 48.11732 | 16.57923 | 625 ft | 66 kts | 164° |
| 2026-05-04 15:40 | 48.11066 | 16.58204 | 619 ft | 130 kts | 164° |
| 2026-05-04 15:41 | 48.10055 | 16.58621 | 815 ft | 162 kts | 163° |
| 2026-05-04 15:41 | 48.08957 | 16.59089 | 1506 ft | 166 kts | 164° |
| 2026-05-04 15:41 | 48.07845 | 16.59572 | 2113 ft | 169 kts | 165° |
| 2026-05-04 15:41 | 48.06682 | 16.60083 | 2490 ft | 180 kts | 167° |
| 2026-05-04 15:42 | 48.05402 | 16.60200 | 2840 ft | 192 kts | 189° |
| 2026-05-04 15:42 | 48.04129 | 16.59303 | 3076 ft | 220 kts | 220° |
| 2026-05-04 15:42 | 48.03240 | 16.57236 | 3309 ft | 251 kts | 244° |
| 2026-05-04 15:42 | 48.02671 | 16.54748 | 4039 ft | 257 kts | 252° |
| 2026-05-04 15:43 | 48.02505 | 16.52058 | 4822 ft | 263 kts | 265° |
| 2026-05-04 15:43 | 48.02516 | 16.49322 | 5615 ft | 264 kts | 268° |
| 2026-05-04 15:43 | 48.02537 | 16.46572 | 6402 ft | 266 kts | 268° |
| 2026-05-04 15:43 | 48.02555 | 16.43811 | 7160 ft | 267 kts | 268° |
| 2026-05-04 15:44 | 48.02571 | 16.41019 | 7822 ft | 271 kts | 269° |
| 2026-05-04 15:44 | 48.02585 | 16.38178 | 8490 ft | 275 kts | 269° |
| 2026-05-04 15:44 | 48.02779 | 16.35323 | 9211 ft | 279 kts | 277° |
| 2026-05-04 15:44 | 48.03147 | 16.32469 | 9922 ft | 281 kts | 278° |
| 2026-05-04 15:45 | 48.03534 | 16.29540 | 10321 ft | 295 kts | 279° |
| 2026-05-04 15:45 | 48.03943 | 16.26450 | 10583 ft | 312 kts | 278° |
| 2026-05-04 15:45 | 48.04371 | 16.23187 | 10876 ft | 327 kts | 278° |
| 2026-05-04 15:45 | 48.04815 | 16.19781 | 11223 ft | 339 kts | 278° |
| 2026-05-04 15:46 | 48.05267 | 16.16289 | 11718 ft | 344 kts | 278° |
| 2026-05-04 15:46 | 48.05720 | 16.12763 | 12305 ft | 348 kts | 278° |
| 2026-05-04 15:46 | 48.06182 | 16.09191 | 12919 ft | 351 kts | 278° |
| 2026-05-04 15:46 | 48.06646 | 16.05596 | 13490 ft | 355 kts | 278° |
| 2026-05-04 15:47 | 48.07116 | 16.01961 | 14059 ft | 357 kts | 278° |
| 2026-05-04 15:47 | 48.07591 | 15.98302 | 14596 ft | 360 kts | 278° |
| 2026-05-04 15:47 | 48.08068 | 15.94624 | 15164 ft | 361 kts | 278° |
| 2026-05-04 15:47 | 48.08542 | 15.90920 | 15668 ft | 364 kts | 278° |
| 2026-05-04 15:48 | 48.09058 | 15.87198 | 16173 ft | 368 kts | 281° |
| 2026-05-04 15:48 | 48.09690 | 15.83475 | 16699 ft | 370 kts | 282° |
| 2026-05-04 15:48 | 48.10988 | 15.75967 | 17716 ft | 375 kts | 282° |
| 2026-05-04 15:49 | 48.11637 | 15.72171 | 18222 ft | 378 kts | 282° |
| 2026-05-04 15:49 | 48.12287 | 15.68348 | 18682 ft | 380 kts | 282° |
| 2026-05-04 15:49 | 48.12940 | 15.64513 | 19134 ft | 382 kts | 282° |
| 2026-05-04 15:49 | 48.13597 | 15.60650 | 19570 ft | 384 kts | 282° |
| 2026-05-04 15:50 | 48.14259 | 15.56752 | 19986 ft | 387 kts | 282° |
| 2026-05-04 15:50 | 48.14924 | 15.52839 | 20423 ft | 389 kts | 283° |
| 2026-05-04 15:50 | 48.15588 | 15.48885 | 20790 ft | 393 kts | 283° |
| 2026-05-04 15:50 | 48.16250 | 15.44897 | 21181 ft | 396 kts | 283° |
| 2026-05-04 15:51 | 48.16920 | 15.40886 | 21593 ft | 398 kts | 283° |
| 2026-05-04 15:51 | 48.17534 | 15.36832 | 21985 ft | 400 kts | 281° |
| 2026-05-04 15:51 | 48.18103 | 15.32740 | 22400 ft | 402 kts | 281° |
| 2026-05-04 15:51 | 48.18668 | 15.28620 | 22792 ft | 405 kts | 281° |
| 2026-05-04 15:52 | 48.19234 | 15.24474 | 23186 ft | 407 kts | 281° |
| 2026-05-04 15:52 | 48.19803 | 15.20303 | 23551 ft | 410 kts | 281° |
| 2026-05-04 15:52 | 48.20374 | 15.16108 | 23868 ft | 412 kts | 281° |
| 2026-05-04 15:52 | 48.20941 | 15.11892 | 24200 ft | 413 kts | 281° |
| 2026-05-04 15:53 | 48.21515 | 15.07669 | 24517 ft | 415 kts | 281° |
| 2026-05-04 15:53 | 48.22087 | 15.03415 | 24835 ft | 416 kts | 281° |
| 2026-05-04 15:53 | 48.22655 | 14.99154 | 25152 ft | 418 kts | 281° |
| 2026-05-04 15:53 | 48.23221 | 14.94869 | 25461 ft | 420 kts | 281° |
| 2026-05-04 15:54 | 48.23792 | 14.90569 | 25771 ft | 421 kts | 281° |
| 2026-05-04 15:54 | 48.24370 | 14.86251 | 26066 ft | 423 kts | 281° |
| 2026-05-04 15:54 | 48.24950 | 14.81916 | 26359 ft | 425 kts | 281° |
| 2026-05-04 15:54 | 48.25525 | 14.77620 | 26650 ft | 426 kts | 281° |
| 2026-05-04 15:55 | 48.26103 | 14.73258 | 26933 ft | 428 kts | 281° |
| 2026-05-04 15:55 | 48.26679 | 14.68867 | 27230 ft | 429 kts | 281° |
| 2026-05-04 15:55 | 48.27257 | 14.64467 | 27509 ft | 430 kts | 280° |
| 2026-05-04 15:55 | 48.27829 | 14.60054 | 27779 ft | 432 kts | 280° |
| 2026-05-04 15:56 | 48.28406 | 14.55616 | 28038 ft | 433 kts | 281° |
| 2026-05-04 15:56 | 48.28984 | 14.51169 | 28369 ft | 433 kts | 281° |
| 2026-05-04 15:56 | 48.29558 | 14.46735 | 28736 ft | 432 kts | 281° |
| 2026-05-04 15:56 | 48.30130 | 14.42316 | 29099 ft | 431 kts | 281° |
| 2026-05-04 15:57 | 48.30510 | 14.39385 | 29344 ft | 430 kts | 281° |
| 2026-05-04 15:57 | 48.31078 | 14.34984 | 29688 ft | 429 kts | 281° |
| 2026-05-04 15:57 | 48.31641 | 14.30585 | 29914 ft | 429 kts | 281° |
| 2026-05-04 15:57 | 48.32198 | 14.26185 | 29981 ft | 427 kts | 280° |
| 2026-05-04 15:58 | 48.32756 | 14.21810 | 30227 ft | 427 kts | 280° |
| 2026-05-04 15:58 | 48.33324 | 14.17428 | 30562 ft | 426 kts | 280° |
| 2026-05-04 15:58 | 48.33873 | 14.13061 | 30888 ft | 423 kts | 279° |
| 2026-05-04 15:58 | 48.34415 | 14.08723 | 31188 ft | 422 kts | 279° |
| 2026-05-04 15:59 | 48.34955 | 14.04393 | 31472 ft | 421 kts | 279° |
| 2026-05-04 15:59 | 48.35492 | 14.00077 | 31755 ft | 420 kts | 279° |
| 2026-05-04 15:59 | 48.36030 | 13.95764 | 32039 ft | 419 kts | 279° |
| 2026-05-04 15:59 | 48.36563 | 13.91469 | 32324 ft | 418 kts | 279° |
| 2026-05-04 16:00 | 48.37093 | 13.87182 | 32596 ft | 417 kts | 279° |
| 2026-05-04 16:00 | 48.37624 | 13.82884 | 32776 ft | 419 kts | 279° |
| 2026-05-04 16:00 | 48.38151 | 13.78577 | 32924 ft | 419 kts | 279° |
| 2026-05-04 16:00 | 48.38679 | 13.74276 | 32934 ft | 418 kts | 279° |
| 2026-05-04 16:01 | 48.39733 | 13.65677 | 32905 ft | 418 kts | 279° |
| 2026-05-04 16:01 | 48.40777 | 13.57124 | 32897 ft | 418 kts | 279° |
| 2026-05-04 16:02 | 48.41827 | 13.48511 | 32896 ft | 418 kts | 279° |
| 2026-05-04 16:03 | 48.43394 | 13.35602 | 32892 ft | 418 kts | 280° |
| 2026-05-04 16:03 | 48.45253 | 13.27280 | 32897 ft | 420 kts | 289° |
| 2026-05-04 16:04 | 48.47433 | 13.19114 | 32900 ft | 420 kts | 290° |
| 2026-05-04 16:04 | 48.50670 | 13.06839 | 32900 ft | 420 kts | 289° |
| 2026-05-04 16:05 | 48.52826 | 12.98640 | 32904 ft | 420 kts | 289° |
| 2026-05-04 16:06 | 48.56039 | 12.86323 | 32903 ft | 420 kts | 289° |
| 2026-05-04 16:07 | 48.60298 | 12.69871 | 32916 ft | 421 kts | 289° |
| 2026-05-04 16:08 | 48.64508 | 12.53524 | 32908 ft | 416 kts | 289° |
| 2026-05-04 16:09 | 48.69722 | 12.33076 | 32916 ft | 417 kts | 289° |
| 2026-05-04 16:10 | 48.73877 | 12.16687 | 32924 ft | 417 kts | 288° |
| 2026-05-04 16:11 | 48.75902 | 12.03976 | 32931 ft | 414 kts | 277° |
| 2026-05-04 16:11 | 48.76580 | 11.99726 | 32925 ft | 417 kts | 289° |
| 2026-05-04 16:12 | 48.85569 | 11.76859 | 32937 ft | 424 kts | 298° |
| 2026-05-04 16:13 | 48.91640 | 11.61514 | 32935 ft | 424 kts | 298° |
| 2026-05-04 16:14 | 48.97689 | 11.46173 | 32936 ft | 420 kts | 298° |
| 2026-05-04 16:16 | 49.05118 | 11.27207 | 32950 ft | 422 kts | 298° |
| 2026-05-04 16:16 | 49.09620 | 11.15639 | 32279 ft | 423 kts | 297° |
| 2026-05-04 16:17 | 49.12611 | 11.07939 | 31759 ft | 420 kts | 297° |
| 2026-05-04 16:18 | 49.17046 | 10.96452 | 30992 ft | 416 kts | 297° |
| 2026-05-04 16:18 | 49.18508 | 10.92665 | 30559 ft | 412 kts | 297° |
| 2026-05-04 16:19 | 49.22821 | 10.81437 | 28926 ft | 405 kts | 297° |
| 2026-05-04 16:19 | 49.25639 | 10.74058 | 27881 ft | 399 kts | 297° |
| 2026-05-04 16:20 | 49.29795 | 10.63153 | 26348 ft | 393 kts | 296° |
| 2026-05-04 16:20 | 49.32534 | 10.55957 | 25350 ft | 389 kts | 296° |
| 2026-05-04 16:21 | 49.36676 | 10.45294 | 23841 ft | 387 kts | 301° |
| 2026-05-04 16:22 | 49.39715 | 10.38642 | 23214 ft | 376 kts | 301° |
| 2026-05-04 16:22 | 49.44195 | 10.28838 | 22440 ft | 373 kts | 301° |
| 2026-05-04 16:23 | 49.48629 | 10.19079 | 21659 ft | 369 kts | 301° |
| 2026-05-04 16:24 | 49.54437 | 10.06225 | 20638 ft | 362 kts | 301° |
| 2026-05-04 16:25 | 49.57292 | 9.99897 | 20144 ft | 359 kts | 301° |
| 2026-05-04 16:26 | 49.61544 | 9.90431 | 19373 ft | 354 kts | 301° |
| 2026-05-04 16:26 | 49.65032 | 9.82659 | 18290 ft | 349 kts | 300° |
| 2026-05-04 16:27 | 49.67780 | 9.76505 | 17303 ft | 345 kts | 301° |
| 2026-05-04 16:28 | 49.71837 | 9.67393 | 15931 ft | 341 kts | 301° |
| 2026-05-04 16:28 | 49.75807 | 9.58453 | 14661 ft | 333 kts | 301° |
| 2026-05-04 16:29 | 49.80996 | 9.46704 | 12829 ft | 327 kts | 301° |
| 2026-05-04 16:30 | 49.84789 | 9.38105 | 11491 ft | 322 kts | 301° |
| 2026-05-04 16:31 | 49.86808 | 9.32052 | 10691 ft | 309 kts | 283° |
| 2026-05-04 16:31 | 49.88525 | 9.22891 | 10135 ft | 288 kts | 282° |
| 2026-05-04 16:32 | 49.90218 | 9.13943 | 9745 ft | 288 kts | 282° |
| 2026-05-04 16:33 | 49.91348 | 9.08011 | 9490 ft | 284 kts | 282° |
| 2026-05-04 16:33 | 49.92457 | 9.02151 | 9221 ft | 283 kts | 282° |
| 2026-05-04 16:34 | 49.93574 | 8.96310 | 8958 ft | 283 kts | 285° |
| 2026-05-04 16:34 | 49.94535 | 8.93628 | 8820 ft | 290 kts | 308° |
| 2026-05-04 16:35 | 50.00298 | 8.91362 | 8430 ft | 302 kts | 8° |
| 2026-05-04 16:35 | 50.04485 | 8.97672 | 8061 ft | 293 kts | 74° |
| 2026-05-04 16:36 | 50.05117 | 9.00681 | 7960 ft | 292 kts | 75° |
| 2026-05-04 16:36 | 50.06452 | 9.06653 | 7955 ft | 292 kts | 73° |
| 2026-05-04 16:37 | 50.07801 | 9.12397 | 7770 ft | 273 kts | 73° |
| 2026-05-04 16:37 | 50.08637 | 9.15199 | 7636 ft | 294 kts | 56° |
| 2026-05-04 16:37 | 50.12013 | 9.18488 | 7104 ft | 292 kts | 7° |
| 2026-05-04 16:38 | 50.15802 | 9.16983 | 6548 ft | 285 kts | 321° |
| 2026-05-04 16:39 | 50.16736 | 9.09064 | 5990 ft | 264 kts | 243° |
| 2026-05-04 16:39 | 50.15070 | 9.03960 | 5997 ft | 265 kts | 241° |
| 2026-05-04 16:40 | 50.13559 | 8.98725 | 5639 ft | 265 kts | 246° |
| 2026-05-04 16:40 | 50.12269 | 8.93381 | 4997 ft | 262 kts | 248° |
| 2026-05-04 16:41 | 50.11020 | 8.88125 | 4295 ft | 254 kts | 248° |
| 2026-05-04 16:41 | 50.09447 | 8.81513 | 3435 ft | 237 kts | 250° |
| 2026-05-04 16:42 | 50.07776 | 8.74491 | 2540 ft | 224 kts | 251° |
| 2026-05-04 16:43 | 50.06753 | 8.70182 | 1953 ft | 196 kts | 251° |
| 2026-05-04 16:43 | 50.05896 | 8.66586 | 1503 ft | 169 kts | 252° |
| 2026-05-04 16:43 | 50.05579 | 8.65238 | 1321 ft | 171 kts | 252° |
| 2026-05-04 16:44 | 50.04120 | 8.59126 | 465 ft | 155 kts | 253° |
| 2026-05-04 16:45 | 50.03461 | 8.56390 | 363 ft | 112 kts | 253° |
| 2026-05-04 16:46 | 50.03190 | 8.54851 | 350 ft | 16 kts | 279° |
| 2026-05-04 16:46 | 50.03253 | 8.54598 | 343 ft | 12 kts | 7° |
| 2026-05-04 16:47 | 50.03319 | 8.54745 | 354 ft | 0 kts | 69° |
| 2026-05-04 16:47 | 50.03334 | 8.54786 | 357 ft | 10 kts | 51° |
| 2026-05-04 16:48 | 50.03635 | 8.54741 | 349 ft | 11 kts | 339° |
| 2026-05-04 16:48 | 50.03723 | 8.54715 | 351 ft | 16 kts | 18° |
| 2026-05-04 16:49 | 50.03820 | 8.54988 | 358 ft | 16 kts | 69° |
| 2026-05-04 16:49 | 50.03906 | 8.55350 | 354 ft | 21 kts | 69° |
| 2026-05-04 16:50 | 50.04110 | 8.55426 | 363 ft | 15 kts | 49° |
| 2026-05-04 16:50 | 50.04155 | 8.55587 | 363 ft | 8 kts | 69° |
| 2026-05-04 16:51 | 50.04143 | 8.55726 | 364 ft | 6 kts | 159° |
| 2026-05-04 16:51 | 50.04140 | 8.55728 | 357 ft | 0 kts | 163° |
| 2026-05-04 16:51 | 50.04126 | 8.55736 | 357 ft | 5 kts | 159° |
| 2026-05-04 16:52 | 50.04095 | 8.55754 | 357 ft | 0 kts | 160° |